SNJM weather

Aeroporto Elias Breder Airport
ManhuaƧu, Minas Gerais, Brazil

Public forecast

Using degrees Celsius for public forecast. Weather courtesy of forecast.io.

METAR (pilot weather report)

Closest report is Usiminas Airport, 50.4 nm (93.3 km) NNW. Retrieved 2019/07/17 20:00 UTC (42 minutes ago):

SBIP 172000Z 19004KT 9999 BKN040 21/12 Q1022

TAF (pilot weather forecast)

Closest forecast is Bartolomeu Lisandro Airport, 99.5 nm (184.3 km) SSE. Retrieved 2019/07/17 18:00 UTC (3 hours ago):

TAF SBCP 171645Z 1718/1806 21010KT 8000 SCT020 TX22/1718Z TN17/1806Z BECMG 1718/1720 18010KT BECMG 1800/1803 30005KT RMK PHC